Time;durP1;ratioP1;P1;durP2;ratioP2;P2;SDS_P1;SDS_P2;PMS_P1;PMS_P2;Temp;Humidity;BMP_temperature;BMP_pressure;BME280_temperature;BME280_humidity;BME280_pressure;Samples;Min_cycle;Max_cycle;Signal;HPM_P1;HPM_P2
2023/11/09 00:01:43;;;;;;;4.45;2.50;;;10.00;99.90;;;;;;4971995;28;20046;-64
2023/11/09 00:04:09;;;;;;;4.93;2.53;;;10.10;99.90;;;;;;4987975;28;20122;-64
2023/11/09 00:06:35;;;;;;;3.75;2.40;;;10.10;99.90;;;;;;4988811;28;20094;-64
2023/11/09 00:09:00;;;;;;;4.88;2.40;;;10.00;99.90;;;;;;4987040;28;20114;-64
2023/11/09 00:11:26;;;;;;;4.75;2.50;;;10.00;99.90;;;;;;4972386;28;20070;-64
2023/11/09 00:13:52;;;;;;;4.07;2.40;;;10.10;99.90;;;;;;4971594;28;20117;-65
2023/11/09 00:16:18;;;;;;;4.00;2.47;;;10.10;99.90;;;;;;4987845;28;20128;-64
2023/11/09 00:18:44;;;;;;;4.22;2.15;;;10.10;99.90;;;;;;4971196;28;20496;-64
2023/11/09 00:21:09;;;;;;;6.00;2.65;;;10.10;99.90;;;;;;4981421;28;20074;-64
2023/11/09 00:23:35;;;;;;;2.60;2.03;;;10.10;99.90;;;;;;4986710;28;20133;-64
2023/11/09 00:26:01;;;;;;;3.40;1.98;;;10.10;99.90;;;;;;4988060;28;20038;-64
2023/11/09 00:28:27;;;;;;;2.65;1.98;;;10.10;99.90;;;;;;4989196;28;20030;-64
2023/11/09 00:30:53;;;;;;;4.05;2.00;;;10.10;99.90;;;;;;4987104;28;20046;-64
2023/11/09 00:33:18;;;;;;;4.25;2.22;;;10.10;99.90;;;;;;4988668;28;20622;-64
2023/11/09 00:35:46;;;;;;;4.63;2.03;;;10.10;99.90;;;;;;4985625;28;20117;-64
2023/11/09 00:38:14;;;;;;;5.28;2.00;;;10.10;99.90;;;;;;4988774;28;20128;-64
2023/11/09 00:40:41;;;;;;;2.92;1.90;;;10.10;99.90;;;;;;4989506;28;20406;-64
2023/11/09 00:43:06;;;;;;;4.38;2.00;;;10.10;99.90;;;;;;4971836;28;20050;-64
2023/11/09 00:45:34;;;;;;;4.53;1.80;;;10.10;99.90;;;;;;4986435;28;20833;-64
2023/11/09 00:48:00;;;;;;;3.05;1.73;;;10.10;99.90;;;;;;4972001;28;20038;-64
2023/11/09 00:50:26;;;;;;;3.67;2.00;;;10.10;99.90;;;;;;4987901;28;20046;-64
2023/11/09 00:52:52;;;;;;;4.20;1.88;;;10.10;99.90;;;;;;4989052;28;20036;-64
2023/11/09 00:55:17;;;;;;;2.70;1.80;;;10.10;99.90;;;;;;4987247;28;20050;-64
2023/11/09 00:57:43;;;;;;;2.92;1.60;;;10.10;99.90;;;;;;4971823;28;20358;-64
2023/11/09 01:00:09;;;;;;;3.45;2.00;;;10.10;99.90;;;;;;4985660;28;20034;-64
2023/11/09 01:02:38;;;;;;;4.45;1.98;;;10.10;99.90;;;;;;4960898;28;20058;-64
2023/11/09 01:05:07;;;;;;;3.63;2.35;;;10.20;99.90;;;;;;4985436;28;20117;-64
2023/11/09 01:07:33;;;;;;;2.55;1.90;;;10.10;99.90;;;;;;4986051;28;20096;-65
2023/11/09 01:09:59;;;;;;;2.55;2.00;;;10.10;99.90;;;;;;4969227;28;20073;-64
2023/11/09 01:12:26;;;;;;;3.03;2.00;;;10.10;99.90;;;;;;4968592;28;20034;-64
2023/11/09 01:14:52;;;;;;;3.25;2.20;;;10.10;99.90;;;;;;4985874;28;20046;-65
2023/11/09 01:17:18;;;;;;;3.13;1.98;;;10.20;99.90;;;;;;4987026;28;20207;-65
2023/11/09 01:19:43;;;;;;;3.08;2.00;;;10.20;99.90;;;;;;4985564;28;20097;-64
2023/11/09 01:22:09;;;;;;;3.35;2.05;;;10.10;99.90;;;;;;4988942;28;20030;-64
2023/11/09 01:24:35;;;;;;;2.65;1.90;;;10.10;99.90;;;;;;4989636;28;20521;-64
2023/11/09 01:27:00;;;;;;;3.53;1.88;;;10.10;99.90;;;;;;4989168;28;20133;-66
2023/11/09 01:29:26;;;;;;;4.35;2.10;;;10.10;99.90;;;;;;4990712;28;20045;-64
2023/11/09 01:31:54;;;;;;;2.65;2.00;;;10.20;99.90;;;;;;4990198;28;20446;-64
2023/11/09 01:34:20;;;;;;;3.60;1.98;;;10.10;99.90;;;;;;4989815;28;20413;-65
2023/11/09 01:36:46;;;;;;;3.40;2.03;;;10.10;99.90;;;;;;4989197;28;20042;-64
2023/11/09 01:39:12;;;;;;;3.60;2.05;;;10.10;99.90;;;;;;4990222;28;20121;-64
2023/11/09 01:41:38;;;;;;;3.25;2.13;;;10.10;99.90;;;;;;4989987;28;20046;-64
2023/11/09 01:44:04;;;;;;;4.07;2.00;;;10.10;99.90;;;;;;4989606;28;20121;-64
2023/11/09 01:46:31;;;;;;;3.10;2.05;;;10.20;99.90;;;;;;4987996;28;20129;-64
2023/11/09 01:48:59;;;;;;;2.92;2.20;;;10.10;99.90;;;;;;4987308;28;20058;-65
2023/11/09 01:51:26;;;;;;;3.67;2.17;;;10.10;99.90;;;;;;4986876;28;20038;-64
2023/11/09 01:53:52;;;;;;;3.10;1.92;;;10.10;99.90;;;;;;4989783;28;20069;-66
2023/11/09 01:56:19;;;;;;;3.47;2.33;;;10.20;99.90;;;;;;4972145;28;20151;-64
2023/11/09 01:58:47;;;;;;;2.22;2.00;;;10.10;99.90;;;;;;4988262;28;20486;-64
2023/11/09 02:01:13;;;;;;;3.63;2.33;;;10.10;99.90;;;;;;4972387;28;20282;-64
2023/11/09 02:03:43;;;;;;;3.40;2.38;;;10.10;99.90;;;;;;4989615;28;20046;-65
2023/11/09 02:06:09;;;;;;;4.15;2.20;;;10.10;99.90;;;;;;4985147;28;20043;-64
2023/11/09 02:08:36;;;;;;;4.70;2.30;;;10.10;99.90;;;;;;4988476;28;20034;-64
2023/11/09 02:11:03;;;;;;;2.45;2.15;;;10.10;99.90;;;;;;4987301;28;20031;-64
2023/11/09 02:13:29;;;;;;;3.35;2.30;;;10.10;99.90;;;;;;4971781;28;20117;-64
2023/11/09 02:15:55;;;;;;;2.47;2.05;;;10.10;99.90;;;;;;4989181;28;20086;-64
2023/11/09 02:18:22;;;;;;;2.55;2.00;;;10.10;99.90;;;;;;4989617;28;20058;-64
2023/11/09 02:20:52;;;;;;;3.08;2.00;;;10.10;99.90;;;;;;4990067;28;20042;-64
2023/11/09 02:23:23;;;;;;;4.85;2.00;;;10.20;99.90;;;;;;4988925;28;20544;-64
2023/11/09 02:25:49;;;;;;;2.75;2.10;;;10.20;99.90;;;;;;4971736;28;20478;-64
2023/11/09 02:28:15;;;;;;;2.75;1.90;;;10.20;99.90;;;;;;4990356;28;20103;-64
2023/11/09 02:30:41;;;;;;;3.35;1.90;;;10.20;99.90;;;;;;4988919;28;20097;-65
2023/11/09 02:33:10;;;;;;;2.88;2.10;;;10.20;99.90;;;;;;4971329;28;20057;-65
2023/11/09 02:35:37;;;;;;;5.03;2.20;;;10.10;99.90;;;;;;4988510;28;20038;-64
2023/11/09 02:38:03;;;;;;;3.83;2.15;;;10.10;99.90;;;;;;4989149;28;20057;-64
2023/11/09 02:40:30;;;;;;;3.70;1.80;;;10.10;99.90;;;;;;4968887;28;20052;-65
2023/11/09 02:42:56;;;;;;;5.00;1.80;;;10.10;99.90;;;;;;4971187;28;20538;-64
2023/11/09 02:45:21;;;;;;;2.65;1.98;;;10.10;99.90;;;;;;4990614;28;20073;-64
2023/11/09 02:47:47;;;;;;;3.80;1.90;;;10.10;99.90;;;;;;4982889;28;20092;-64
2023/11/09 02:50:14;;;;;;;3.47;2.00;;;10.20;99.90;;;;;;4988608;28;20573;-64
2023/11/09 02:52:41;;;;;;;3.22;2.00;;;10.10;99.90;;;;;;4977179;28;20050;-64
2023/11/09 02:55:08;;;;;;;2.85;1.95;;;10.20;99.90;;;;;;4987569;28;20038;-65
2023/11/09 02:57:34;;;;;;;2.70;2.13;;;10.20;99.90;;;;;;4970961;28;20038;-64
2023/11/09 03:00:00;;;;;;;2.55;1.85;;;10.20;99.90;;;;;;4981409;28;20506;-64
2023/11/09 03:02:27;;;;;;;2.58;1.90;;;10.10;99.90;;;;;;4984506;28;20502;-64
2023/11/09 03:04:53;;;;;;;3.00;2.00;;;10.20;99.90;;;;;;4987977;28;20481;-66
2023/11/09 03:07:19;;;;;;;2.05;1.80;;;10.10;99.90;;;;;;4986622;28;20038;-64
2023/11/09 03:09:44;;;;;;;4.40;2.10;;;10.10;99.90;;;;;;4993616;28;20455;-64
2023/11/09 03:12:10;;;;;;;2.60;1.80;;;10.20;99.90;;;;;;4971275;28;20046;-64
2023/11/09 03:14:36;;;;;;;3.72;2.05;;;10.20;99.90;;;;;;4988274;28;20502;-65
2023/11/09 03:17:06;;;;;;;2.20;1.65;;;10.10;99.90;;;;;;4978552;28;20042;-64
2023/11/09 03:19:33;;;;;;;2.80;1.73;;;10.20;99.90;;;;;;4980131;28;20042;-64
2023/11/09 03:21:58;;;;;;;2.05;1.80;;;10.10;99.90;;;;;;4968039;28;20715;-64
2023/11/09 03:24:24;;;;;;;2.53;1.85;;;10.10;99.90;;;;;;4981638;28;20074;-66
2023/11/09 03:26:50;;;;;;;3.17;1.92;;;10.20;99.90;;;;;;4970191;28;20402;-64
2023/11/09 03:29:15;;;;;;;2.72;1.70;;;10.20;99.90;;;;;;4983368;28;20046;-64
2023/11/09 03:31:42;;;;;;;2.65;1.70;;;10.20;99.90;;;;;;4988779;28;20058;-65
2023/11/09 03:34:08;;;;;;;3.22;1.90;;;10.10;99.90;;;;;;4981705;28;20118;-66
2023/11/09 03:36:34;;;;;;;2.15;1.70;;;10.10;99.90;;;;;;4986347;28;20141;-64
2023/11/09 03:39:00;;;;;;;2.70;1.80;;;10.10;99.90;;;;;;4987582;28;20488;-65
2023/11/09 03:41:26;;;;;;;1.73;1.52;;;10.20;99.90;;;;;;4986984;28;20129;-64
2023/11/09 03:43:53;;;;;;;2.30;1.63;;;10.10;99.90;;;;;;4987584;28;20088;-64
2023/11/09 03:46:21;;;;;;;3.78;1.90;;;10.10;99.90;;;;;;4983994;28;20050;-65
2023/11/09 03:48:47;;;;;;;2.80;1.80;;;10.20;99.90;;;;;;4987828;28;20042;-64
2023/11/09 03:51:12;;;;;;;1.80;1.70;;;10.10;99.90;;;;;;4987549;28;20458;-66
2023/11/09 03:53:38;;;;;;;2.20;2.00;;;10.10;99.90;;;;;;4969918;28;20488;-64
2023/11/09 03:56:04;;;;;;;2.88;1.90;;;10.20;99.90;;;;;;4987569;28;20129;-65
2023/11/09 03:58:30;;;;;;;2.80;2.22;;;10.10;99.90;;;;;;4984638;28;20138;-66
2023/11/09 04:00:57;;;;;;;3.03;2.00;;;10.20;99.90;;;;;;4987297;28;20404;-65
2023/11/09 04:03:23;;;;;;;3.08;2.15;;;10.20;99.90;;;;;;4987237;28;20042;-66
2023/11/09 04:05:48;;;;;;;3.53;2.53;;;10.20;99.90;;;;;;4987077;28;20783;-64
2023/11/09 04:08:14;;;;;;;2.45;2.08;;;10.20;99.90;;;;;;4987889;28;20060;-64
2023/11/09 04:10:40;;;;;;;2.75;2.28;;;10.20;99.90;;;;;;4984312;28;20074;-64
2023/11/09 04:13:05;;;;;;;3.75;2.70;;;10.20;99.90;;;;;;4970055;28;20042;-64
2023/11/09 04:15:31;;;;;;;4.65;2.30;;;10.20;99.90;;;;;;4986637;28;20441;-66
2023/11/09 04:17:57;;;;;;;3.97;2.67;;;10.30;99.90;;;;;;4970171;28;20089;-65
2023/11/09 04:20:23;;;;;;;3.30;2.65;;;10.30;99.90;;;;;;4969493;28;20129;-64
2023/11/09 04:22:48;;;;;;;3.22;2.55;;;10.20;99.90;;;;;;4985778;28;20085;-65
2023/11/09 04:25:14;;;;;;;3.95;2.88;;;10.20;99.90;;;;;;4986018;28;20046;-65
2023/11/09 04:27:43;;;;;;;3.72;2.85;;;10.30;99.90;;;;;;4985644;28;20114;-64
2023/11/09 04:30:15;;;;;;;4.30;2.63;;;10.20;99.90;;;;;;4987338;28;20049;-64
2023/11/09 04:32:42;;;;;;;4.10;3.03;;;10.30;99.90;;;;;;4982153;28;20034;-64
2023/11/09 04:35:08;;;;;;;4.80;3.00;;;10.30;99.90;;;;;;4995509;28;20069;-66
2023/11/09 04:37:38;;;;;;;4.00;2.92;;;10.30;99.90;;;;;;4989192;28;20066;-65
2023/11/09 04:40:15;;;;;;;4.95;3.75;;;10.30;99.90;;;;;;4980528;28;20128;-64
2023/11/09 04:42:44;;;;;;;4.30;3.17;;;10.30;99.90;;;;;;4956740;28;20044;-64
2023/11/09 04:45:11;;;;;;;5.28;2.80;;;10.30;99.90;;;;;;4998923;28;20042;-64
2023/11/09 04:47:41;;;;;;;4.32;3.20;;;10.30;99.90;;;;;;4995861;28;20054;-65
2023/11/09 04:50:22;;;;;;;5.22;3.80;;;10.30;99.90;;;;;;4991745;28;20030;-64
2023/11/09 04:52:57;;;;;;;5.18;3.72;;;10.30;99.90;;;;;;4989875;28;20050;-64
2023/11/09 04:55:32;;;;;;;5.07;3.47;;;10.30;99.90;;;;;;4986674;28;20055;-66
2023/11/09 05:08:55;;;;;;;5.63;3.90;;;10.40;99.90;;;;;;4997062;28;20037;-64
2023/11/09 05:11:21;;;;;;;4.65;3.55;;;10.30;99.90;;;;;;4990917;28;20104;-66
2023/11/09 05:13:46;;;;;;;6.95;3.60;;;10.30;99.90;;;;;;4972671;28;20046;-64
2023/11/09 05:16:12;;;;;;;6.35;4.20;;;10.30;99.90;;;;;;4983822;28;20043;-65
2023/11/09 05:18:38;;;;;;;6.32;4.53;;;10.30;99.90;;;;;;4987585;28;20374;-64
2023/11/09 05:21:04;;;;;;;6.55;4.30;;;10.40;99.90;;;;;;4970613;28;20486;-64
2023/11/09 05:23:30;;;;;;;7.07;4.80;;;10.40;99.90;;;;;;4989513;28;20096;-64
2023/11/09 05:25:55;;;;;;;6.63;4.40;;;10.40;99.90;;;;;;4969443;28;20039;-65
2023/11/09 05:28:21;;;;;;;10.07;5.03;;;10.40;99.90;;;;;;4986460;28;20125;-64
2023/11/09 05:30:50;;;;;;;6.53;4.68;;;10.40;99.90;;;;;;4990191;28;20030;-64
2023/11/09 05:33:17;;;;;;;8.05;5.28;;;10.40;99.90;;;;;;4993712;28;20074;-64
2023/11/09 05:35:43;;;;;;;7.22;5.45;;;10.40;99.90;;;;;;4971736;28;20061;-64
2023/11/09 05:38:10;;;;;;;9.98;5.75;;;10.40;99.90;;;;;;4988358;28;20046;-64
2023/11/09 05:40:36;;;;;;;8.13;5.88;;;10.50;99.90;;;;;;4988367;28;20072;-65
2023/11/09 05:43:01;;;;;;;8.73;6.03;;;10.40;99.90;;;;;;4987558;28;20489;-66
2023/11/09 05:45:27;;;;;;;8.27;5.80;;;10.40;99.90;;;;;;4992140;28;20027;-64
2023/11/09 05:47:53;;;;;;;7.82;5.72;;;10.40;99.90;;;;;;4991213;28;20485;-64
2023/11/09 05:50:19;;;;;;;9.73;6.35;;;10.40;99.90;;;;;;4970512;28;20046;-64
2023/11/09 05:52:45;;;;;;;9.68;5.90;;;10.40;99.90;;;;;;4988808;28;20033;-64
2023/11/09 05:55:11;;;;;;;8.27;5.95;;;10.40;99.90;;;;;;4992501;28;20042;-65
2023/11/09 05:57:37;;;;;;;9.00;6.40;;;10.40;99.90;;;;;;4991019;28;20042;-64
2023/11/09 06:00:08;;;;;;;9.98;6.40;;;10.40;99.90;;;;;;4967140;28;20046;-64
2023/11/09 06:02:34;;;;;;;9.82;6.65;;;10.40;99.90;;;;;;4990984;28;20046;-65
2023/11/09 06:04:59;;;;;;;10.07;6.78;;;10.40;99.90;;;;;;4970766;28;20034;-64
2023/11/09 06:07:26;;;;;;;8.07;6.22;;;10.40;99.90;;;;;;4987477;28;20043;-64
2023/11/09 06:09:52;;;;;;;9.38;5.55;;;10.40;99.90;;;;;;4970808;28;20108;-64
2023/11/09 06:12:17;;;;;;;7.40;5.03;;;10.40;99.90;;;;;;4981222;28;20409;-64
2023/11/09 06:14:43;;;;;;;8.18;4.90;;;10.40;99.90;;;;;;4986690;28;20457;-64
2023/11/09 06:17:10;;;;;;;8.05;4.40;;;10.30;99.90;;;;;;4989206;28;20034;-64
2023/11/09 06:19:37;;;;;;;6.25;3.67;;;10.30;99.90;;;;;;4988860;28;20046;-64
2023/11/09 06:22:03;;;;;;;7.88;3.22;;;10.30;99.90;;;;;;4988763;28;20113;-66
2023/11/09 06:24:29;;;;;;;9.00;2.92;;;10.20;99.90;;;;;;4968108;28;20138;-65
2023/11/09 06:26:55;;;;;;;10.52;3.08;;;10.20;99.90;;;;;;4988134;28;20026;-64
2023/11/09 06:29:22;;;;;;;13.85;3.90;;;10.30;99.90;;;;;;4971469;28;20088;-65
2023/11/09 06:31:48;;;;;;;13.80;3.50;;;10.10;99.90;;;;;;4988690;28;20105;-67
2023/11/09 06:34:14;;;;;;;18.67;4.05;;;10.10;99.90;;;;;;4986605;28;20050;-64
2023/11/09 06:36:45;;;;;;;14.57;3.95;;;10.00;99.90;;;;;;4986846;28;20044;-64
2023/11/09 06:39:16;;;;;;;17.48;3.28;;;10.00;99.90;;;;;;4984066;28;20061;-64
2023/11/09 06:41:45;;;;;;;16.70;3.75;;;9.90;99.90;;;;;;4988313;28;20034;-64
2023/11/09 06:44:12;;;;;;;15.52;4.55;;;9.90;99.90;;;;;;4988669;28;20693;-65
2023/11/09 06:46:38;;;;;;;12.55;3.38;;;9.90;99.90;;;;;;4986780;28;20048;-64
2023/11/09 06:49:06;;;;;;;11.07;3.40;;;9.80;99.90;;;;;;4970940;28;20791;-64
2023/11/09 06:51:32;;;;;;;14.82;3.13;;;9.80;99.90;;;;;;4970668;28;20038;-66
2023/11/09 06:53:58;;;;;;;14.27;2.85;;;9.80;99.90;;;;;;4988421;28;20464;-64
2023/11/09 06:56:24;;;;;;;10.45;3.05;;;9.70;99.90;;;;;;4987914;28;20125;-64
2023/11/09 06:58:49;;;;;;;11.00;2.30;;;9.70;99.90;;;;;;4989932;28;20121;-64
2023/11/09 07:01:15;;;;;;;10.68;2.47;;;9.70;99.90;;;;;;4995723;28;20141;-64
2023/11/09 07:03:41;;;;;;;8.70;2.33;;;9.70;99.90;;;;;;4991052;28;20038;-64
2023/11/09 07:06:06;;;;;;;7.75;2.33;;;9.60;99.90;;;;;;4976192;28;20042;-65
2023/11/09 07:08:33;;;;;;;11.57;2.33;;;9.60;99.90;;;;;;4992065;28;20478;-66
2023/11/09 07:10:59;;;;;;;10.52;2.20;;;9.60;99.90;;;;;;4987450;28;20375;-64
2023/11/09 07:13:25;;;;;;;10.50;2.35;;;9.60;99.90;;;;;;4987648;28;20065;-64
2023/11/09 07:15:52;;;;;;;9.95;2.55;;;9.60;99.90;;;;;;4986685;28;20043;-64
2023/11/09 07:18:18;;;;;;;14.65;2.85;;;9.60;99.90;;;;;;4982283;28;20121;-64
2023/11/09 07:20:44;;;;;;;13.98;2.40;;;9.60;99.90;;;;;;4971399;28;20085;-65
2023/11/09 07:23:11;;;;;;;10.48;2.17;;;9.50;99.90;;;;;;4972977;28;20115;-65
2023/11/09 07:25:37;;;;;;;12.18;2.45;;;9.50;99.90;;;;;;4996479;28;20041;-64
2023/11/09 07:28:03;;;;;;;12.38;2.58;;;9.50;99.90;;;;;;4988463;28;20070;-64
2023/11/09 07:30:31;;;;;;;10.25;2.40;;;9.50;99.90;;;;;;4987935;28;20117;-64
2023/11/09 07:32:59;;;;;;;10.27;2.58;;;9.50;99.90;;;;;;4982151;28;20049;-64
2023/11/09 07:35:25;;;;;;;15.20;2.60;;;9.50;99.90;;;;;;4978238;28;20101;-64
2023/11/09 07:37:50;;;;;;;15.73;2.67;;;9.50;99.90;;;;;;4988178;28;20038;-64
2023/11/09 07:40:16;;;;;;;14.13;2.83;;;9.50;99.90;;;;;;4970265;28;20042;-64
2023/11/09 07:42:43;;;;;;;10.48;2.58;;;9.50;99.90;;;;;;4980897;28;20081;-65
2023/11/09 07:45:10;;;;;;;12.07;2.97;;;9.50;99.90;;;;;;4985251;28;20085;-66
2023/11/09 07:47:36;;;;;;;11.70;2.63;;;9.50;99.90;;;;;;4993775;28;20046;-64
2023/11/09 07:50:04;;;;;;;12.60;2.72;;;9.50;99.90;;;;;;4986701;28;20045;-65
2023/11/09 07:52:30;;;;;;;9.80;2.90;;;9.50;99.90;;;;;;4987783;28;20100;-64
2023/11/09 07:54:56;;;;;;;11.15;2.42;;;9.50;99.90;;;;;;4970051;28;20046;-65
2023/11/09 07:57:21;;;;;;;15.57;3.00;;;9.50;99.90;;;;;;4983720;28;20049;-66
2023/11/09 07:59:47;;;;;;;14.32;2.78;;;9.50;99.90;;;;;;4991642;28;20038;-64
2023/11/09 08:02:13;;;;;;;15.27;3.45;;;9.50;99.90;;;;;;4981735;28;20073;-65
2023/11/09 08:04:41;;;;;;;19.50;3.25;;;9.50;99.90;;;;;;4991306;28;20050;-65
2023/11/09 08:07:08;;;;;;;12.32;2.63;;;9.60;99.90;;;;;;4979006;28;20038;-66
2023/11/09 08:09:36;;;;;;;11.38;2.63;;;9.60;99.90;;;;;;4977437;28;20057;-65
2023/11/09 08:12:01;;;;;;;11.05;3.30;;;9.60;99.90;;;;;;4994905;28;20100;-65
2023/11/09 08:14:27;;;;;;;13.60;3.10;;;9.60;99.90;;;;;;5000536;28;20049;-65
2023/11/09 08:16:53;;;;;;;11.43;2.97;;;9.60;99.90;;;;;;4986443;28;20531;-65
2023/11/09 08:19:19;;;;;;;14.93;3.22;;;9.60;99.90;;;;;;4992296;28;20046;-65
2023/11/09 08:21:45;;;;;;;10.15;3.05;;;9.60;99.90;;;;;;4987135;28;20070;-65
2023/11/09 08:24:10;;;;;;;9.98;3.22;;;9.60;99.90;;;;;;4986648;28;20070;-65
2023/11/09 08:26:36;;;;;;;13.00;3.22;;;9.70;99.90;;;;;;4988302;28;20520;-65
2023/11/09 08:29:02;;;;;;;15.77;3.33;;;9.60;99.90;;;;;;4992116;28;20038;-66
2023/11/09 08:31:28;;;;;;;11.73;3.30;;;9.70;99.90;;;;;;4970366;28;20074;-65
2023/11/09 08:33:56;;;;;;;11.02;3.08;;;9.70;99.90;;;;;;4989487;28;20070;-64
2023/11/09 08:36:22;;;;;;;11.63;2.80;;;9.70;99.90;;;;;;4973394;28;20046;-64
2023/11/09 08:38:47;;;;;;;10.55;3.53;;;9.70;99.90;;;;;;4972884;28;20041;-65
2023/11/09 08:41:15;;;;;;;11.73;3.50;;;9.80;99.90;;;;;;4973344;28;20104;-65
2023/11/09 08:43:41;;;;;;;11.25;3.50;;;9.80;99.90;;;;;;4980492;28;20074;-66
2023/11/09 08:46:06;;;;;;;12.82;3.45;;;9.80;99.90;;;;;;4990265;28;20072;-65
2023/11/09 08:48:32;;;;;;;8.40;3.60;;;9.80;99.90;;;;;;4989108;28;20046;-65
2023/11/09 08:51:00;;;;;;;11.88;3.38;;;9.80;99.90;;;;;;4990465;28;20042;-65
2023/11/09 08:53:32;;;;;;;18.75;4.38;;;9.80;99.90;;;;;;4990134;28;20042;-65
2023/11/09 08:56:01;;;;;;;11.57;4.00;;;9.80;99.90;;;;;;4990557;28;20100;-66
2023/11/09 08:58:28;;;;;;;11.30;3.75;;;9.80;99.90;;;;;;4989715;28;20281;-65
2023/11/09 09:01:01;;;;;;;14.85;4.20;;;9.80;99.90;;;;;;4990410;28;20046;-65
2023/11/09 09:03:27;;;;;;;12.48;4.40;;;9.80;99.90;;;;;;4989735;28;20042;-65
2023/11/09 09:05:55;;;;;;;12.80;4.57;;;9.80;99.90;;;;;;4989526;28;20074;-65
2023/11/09 09:08:23;;;;;;;17.15;4.20;;;9.90;99.90;;;;;;4986560;28;20042;-64
2023/11/09 09:10:49;;;;;;;9.52;3.90;;;10.00;99.90;;;;;;4971860;28;20125;-65
2023/11/09 09:13:15;;;;;;;10.32;3.40;;;9.90;99.90;;;;;;4990233;28;20115;-65
2023/11/09 09:15:45;;;;;;;10.93;4.20;;;9.90;99.90;;;;;;4971409;28;20858;-65
2023/11/09 09:18:10;;;;;;;11.93;3.33;;;10.00;99.90;;;;;;4981126;28;20843;-65
2023/11/09 09:20:38;;;;;;;13.15;3.90;;;9.90;99.90;;;;;;5003070;28;20080;-66
2023/11/09 09:23:04;;;;;;;16.33;4.85;;;10.00;99.90;;;;;;4991577;28;20045;-64
2023/11/09 09:25:30;;;;;;;14.23;4.50;;;10.00;99.90;;;;;;4998008;28;20494;-65
2023/11/09 09:27:56;;;;;;;13.05;4.38;;;10.10;99.90;;;;;;4995170;28;20042;-64
2023/11/09 09:30:24;;;;;;;16.05;4.22;;;10.10;99.90;;;;;;4989801;28;20198;-65
2023/11/09 09:32:52;;;;;;;18.90;4.63;;;10.20;99.90;;;;;;4972394;28;20080;-65
2023/11/09 09:35:25;;;;;;;13.40;4.20;;;10.20;99.90;;;;;;4971498;28;20125;-65
2023/11/09 09:37:51;;;;;;;14.43;3.67;;;10.30;99.90;;;;;;4989862;28;20493;-65
2023/11/09 09:40:25;;;;;;;13.60;3.50;;;10.30;99.90;;;;;;4985438;28;20041;-64
2023/11/09 09:42:52;;;;;;;18.45;4.00;;;10.30;99.90;;;;;;4989023;28;20417;-66
2023/11/09 09:45:22;;;;;;;13.82;3.55;;;10.30;99.90;;;;;;4988834;28;20038;-64
2023/11/09 09:47:52;;;;;;;17.63;3.90;;;10.30;99.90;;;;;;4971882;28;20486;-64
2023/11/09 09:50:25;;;;;;;12.82;3.78;;;10.30;99.90;;;;;;4986479;28;20650;-64
2023/11/09 09:52:55;;;;;;;9.75;3.53;;;10.30;99.90;;;;;;4981136;28;20882;-64
2023/11/09 09:55:24;;;;;;;11.60;3.63;;;10.40;99.90;;;;;;4988971;28;20057;-64
2023/11/09 09:57:51;;;;;;;14.77;4.13;;;10.50;99.90;;;;;;4984471;28;20081;-64
2023/11/09 10:00:26;;;;;;;13.07;4.10;;;10.50;99.90;;;;;;4970807;28;20108;-65
2023/11/09 10:02:56;;;;;;;12.20;3.80;;;10.60;99.90;;;;;;4963779;28;20401;-65
2023/11/09 10:05:27;;;;;;;12.55;3.78;;;10.60;99.90;;;;;;4981160;28;20050;-65
2023/11/09 10:08:10;;;;;;;19.00;4.53;;;10.60;99.90;;;;;;4981887;28;20073;-65
2023/11/09 10:10:49;;;;;;;20.67;4.47;;;10.70;99.90;;;;;;4986959;28;20043;-65
2023/11/09 10:13:15;;;;;;;13.63;3.80;;;10.70;99.90;;;;;;4988803;28;20061;-65
2023/11/09 10:15:45;;;;;;;18.38;3.70;;;10.70;99.90;;;;;;4983082;28;20053;-65
2023/11/09 10:18:11;;;;;;;12.98;3.63;;;10.70;99.90;;;;;;4971645;28;20046;-66
2023/11/09 10:20:37;;;;;;;17.15;3.92;;;10.70;99.90;;;;;;4988675;28;20069;-65
2023/11/09 10:23:08;;;;;;;16.33;4.28;;;10.70;99.90;;;;;;4971262;28;20101;-65
2023/11/09 10:25:36;;;;;;;18.85;3.47;;;10.70;99.90;;;;;;4987607;28;20046;-66
2023/11/09 10:28:07;;;;;;;15.63;3.83;;;10.70;99.90;;;;;;4971539;28;20038;-66
2023/11/09 10:30:55;;;;;;;22.00;3.92;;;10.60;99.90;;;;;;4986287;28;20035;-66
2023/11/09 10:33:22;;;;;;;14.90;3.45;;;10.60;99.90;;;;;;4988179;28;20514;-65
2023/11/09 10:35:48;;;;;;;14.98;3.47;;;10.70;99.90;;;;;;4980787;28;20046;-65
2023/11/09 10:38:20;;;;;;;10.98;3.70;;;10.70;99.90;;;;;;4988320;28;20049;-65
2023/11/09 10:40:47;;;;;;;;;;;10.70;99.90;;;;;;4971286;28;20120;-65
2023/11/09 10:43:14;;;;;;;16.48;4.22;;;10.70;99.90;;;;;;4967499;28;19981;-66
2023/11/09 10:45:45;;;;;;;20.80;4.13;;;10.70;99.90;;;;;;4968527;28;20050;-65
2023/11/09 10:48:17;;;;;;;17.73;3.67;;;10.70;99.90;;;;;;4986297;28;20034;-66
2023/11/09 10:50:47;;;;;;;13.00;3.45;;;10.80;99.90;;;;;;4963952;28;20121;-65
2023/11/09 10:53:18;;;;;;;14.35;3.65;;;10.90;99.90;;;;;;4971270;28;20096;-66
2023/11/09 10:55:54;;;;;;;15.63;4.27;;;10.90;99.90;;;;;;4979799;28;20155;-65
2023/11/09 10:58:24;;;;;;;12.73;3.30;;;11.00;99.90;;;;;;4987429;28;20038;-66
2023/11/09 11:00:51;;;;;;;12.05;3.85;;;11.10;99.90;;;;;;4970485;28;20862;-65
2023/11/09 11:03:29;;;;;;;18.33;4.05;;;11.10;99.90;;;;;;4985230;28;20050;-65
2023/11/09 11:06:00;;;;;;;14.13;3.38;;;11.20;99.90;;;;;;4987446;28;20038;-65
2023/11/09 11:08:27;;;;;;;11.00;3.35;;;11.20;99.90;;;;;;4988329;28;20047;-68
2023/11/09 11:10:54;;;;;;;14.50;3.10;;;11.20;99.90;;;;;;4986317;28;20402;-66
2023/11/09 11:13:20;;;;;;;13.43;3.35;;;11.30;99.90;;;;;;4987722;28;20405;-65
2023/11/09 11:16:16;;;;;;;11.70;3.58;;;11.20;99.90;;;;;;4987434;28;20049;-66
2023/11/09 11:19:17;;;;;;;19.02;3.88;;;11.30;99.90;;;;;;4969783;28;20758;-66
2023/11/09 11:22:10;;;;;;;18.08;5.07;;;11.20;99.90;;;;;;4987638;28;20401;-66
2023/11/09 11:24:47;;;;;;;19.58;5.13;;;11.10;99.90;;;;;;4980116;28;20082;-66
2023/11/09 11:27:23;;;;;;;17.55;5.35;;;11.10;99.90;;;;;;4986826;28;20046;-66
2023/11/09 11:29:50;;;;;;;17.63;5.68;;;11.00;99.90;;;;;;4974140;28;20049;-66
2023/11/09 11:32:21;;;;;;;15.65;5.82;;;11.10;99.90;;;;;;4988015;28;20046;-66
2023/11/09 11:34:54;;;;;;;18.83;7.35;;;11.10;99.90;;;;;;4986968;28;20045;-66
2023/11/09 11:37:26;;;;;;;;;;;11.20;99.90;;;;;;4987940;28;20081;-67
2023/11/09 11:39:53;;;;;;;22.15;6.95;;;11.30;99.90;;;;;;4980122;28;19921;-66
2023/11/09 11:42:22;;;;;;;19.77;7.25;;;11.30;99.90;;;;;;4974815;28;20129;-66
2023/11/09 11:44:55;;;;;;;19.05;6.50;;;11.40;99.90;;;;;;4986357;28;20057;-66
2023/11/09 11:47:22;;;;;;;20.13;6.40;;;11.40;99.90;;;;;;4987915;28;20046;-66
2023/11/09 11:49:56;;;;;;;22.75;7.50;;;11.40;99.90;;;;;;4986882;28;20037;-66
2023/11/09 11:52:23;;;;;;;21.58;6.68;;;11.50;99.90;;;;;;4980316;28;20113;-65
2023/11/09 11:54:51;;;;;;;15.00;6.00;;;11.40;99.90;;;;;;4968908;28;20053;-66
2023/11/09 11:57:18;;;;;;;17.05;6.22;;;11.40;99.90;;;;;;4984356;28;20485;-66
2023/11/09 12:00:00;;;;;;;18.15;6.45;;;11.40;99.90;;;;;;4973709;28;20046;-66
2023/11/09 12:02:26;;;;;;;17.35;6.57;;;11.40;99.90;;;;;;4980315;28;20042;-64
2023/11/09 12:04:56;;;;;;;15.77;6.50;;;11.40;99.90;;;;;;4988784;28;20034;-66
2023/11/09 12:07:25;;;;;;;19.48;6.80;;;11.40;99.90;;;;;;4985564;28;20038;-65
2023/11/09 12:09:51;;;;;;;18.85;6.07;;;11.30;99.90;;;;;;4971462;28;20045;-65
2023/11/09 12:12:17;;;;;;;17.58;4.90;;;11.30;99.90;;;;;;4985935;28;20042;-66
2023/11/09 12:14:48;;;;;;;15.32;5.18;;;11.30;99.90;;;;;;4980772;28;20063;-65
2023/11/09 12:17:14;;;;;;;20.40;5.30;;;11.30;99.90;;;;;;4989022;28;20113;-65
2023/11/09 12:19:42;;;;;;;16.45;4.38;;;11.30;99.90;;;;;;4971921;28;20046;-65
2023/11/09 12:22:08;;;;;;;16.73;4.38;;;11.30;99.90;;;;;;4984729;28;20046;-66
2023/11/09 12:24:33;;;;;;;15.38;3.35;;;11.30;99.90;;;;;;4987300;28;20042;-65
2023/11/09 12:27:07;;;;;;;14.23;3.60;;;11.30;99.90;;;;;;4986804;28;20030;-65
2023/11/09 12:29:40;;;;;;;16.52;3.53;;;11.30;99.90;;;;;;4967550;28;20050;-65
2023/11/09 12:32:06;;;;;;;;;;;11.30;99.90;;;;;;4970057;28;20046;-66
2023/11/09 12:34:35;;;;;;;14.70;3.40;;;11.30;99.90;;;;;;4987029;28;19932;-65
2023/11/09 12:37:01;;;;;;;11.85;3.25;;;11.30;99.90;;;;;;4970588;28;20417;-66
2023/11/09 12:39:30;;;;;;;15.48;3.63;;;11.30;99.90;;;;;;4987575;28;20042;-65
2023/11/09 12:42:00;;;;;;;18.30;3.88;;;11.30;99.90;;;;;;4988096;28;20042;-65
2023/11/09 12:44:31;;;;;;;16.42;3.70;;;11.30;99.90;;;;;;4987180;28;20082;-65
2023/11/09 12:47:04;;;;;;;13.40;3.22;;;11.30;99.90;;;;;;4970436;28;20042;-65
2023/11/09 12:49:30;;;;;;;20.15;3.95;;;11.30;99.90;;;;;;4987259;28;20517;-65
2023/11/09 12:51:57;;;;;;;17.52;3.97;;;11.10;99.90;;;;;;4990183;28;20038;-65
2023/11/09 12:54:24;;;;;;;16.92;3.50;;;11.20;99.90;;;;;;4970242;28;20129;-66
2023/11/09 12:56:53;;;;;;;15.48;3.65;;;11.20;99.90;;;;;;4966824;28;20133;-66
2023/11/09 12:59:24;;;;;;;17.90;3.53;;;11.20;99.90;;;;;;4970022;28;20162;-66